Time;durP1;ratioP1;P1;durP2;ratioP2;P2;SDS_P1;SDS_P2;PMS_P1;PMS_P2;Temp;Humidity;BMP_temperature;BMP_pressure;BME280_temperature;BME280_humidity;BME280_pressure;Samples;Min_cycle;Max_cycle;Signal;HPM_P1;HPM_P2
2022/08/22 00:01:38;;;;;;;10.30;2.10;;;;;;;16.05;99.83;99841.92;105315;1271;59624;-77
2022/08/22 00:04:57;;;;;;;11.30;2.30;;;;;;;16.04;99.61;99845.25;105477;1271;74762;-80
2022/08/22 00:07:55;;;;;;;7.10;2.20;;;;;;;16.02;99.96;99842.36;105328;1271;69369;-78
2022/08/22 00:11:14;;;;;;;7.30;2.20;;;;;;;16.00;99.99;99844.37;105371;1271;73969;-79
2022/08/22 00:14:30;;;;;;;7.10;2.40;;;;;;;15.96;99.97;99845.32;105698;1271;61827;-78
2022/08/22 00:17:36;;;;;;;6.10;2.40;;;;;;;15.94;100.00;99844.41;105612;1271;59759;-78
2022/08/22 00:20:36;;;;;;;8.30;2.10;;;;;;;15.93;99.95;99848.25;105621;1271;73569;-79
2022/08/22 00:23:54;;;;;;;7.90;2.30;;;;;;;15.94;100.00;99846.98;105939;1271;67965;-79
2022/08/22 00:26:54;;;;;;;7.60;2.20;;;;;;;15.93;99.98;99848.09;105828;1271;73355;-78
2022/08/22 00:29:50;;;;;;;7.80;2.20;;;;;;;15.93;99.99;99847.11;105724;1271;61250;-79
2022/08/22 00:32:47;;;;;;;7.10;2.20;;;;;;;15.93;100.00;99849.86;105099;1271;60870;-79
2022/08/22 00:35:46;;;;;;;9.60;2.70;;;;;;;15.94;100.00;99847.65;105282;1271;72589;-77
2022/08/22 00:38:45;;;;;;;7.70;2.50;;;;;;;15.93;100.00;99847.89;105372;1271;69524;-79
2022/08/22 00:41:54;;;;;;;7.60;2.20;;;;;;;15.94;100.00;99849.23;105289;1271;72587;-79
2022/08/22 00:45:29;;;;;;;6.70;2.00;;;;;;;15.95;100.00;99854.36;105248;1271;61458;-78
2022/08/22 00:49:01;;;;;;;7.50;2.60;;;;;;;15.95;100.00;99849.51;105068;1271;60933;-79
2022/08/22 00:52:21;;;;;;;7.30;2.20;;;;;;;15.95;100.00;99849.38;104650;1276;71995;-79
2022/08/22 00:55:39;;;;;;;6.40;2.40;;;;;;;15.95;100.00;99849.10;104806;1277;68813;-79
2022/08/22 00:59:16;;;;;;;7.70;2.10;;;;;;;15.95;100.00;99850.58;104889;1277;74361;-78
2022/08/22 01:02:31;;;;;;;8.40;2.20;;;;;;;15.95;100.00;99848.29;104925;1277;60364;-78
2022/08/22 01:06:08;;;;;;;6.60;2.20;;;;;;;15.94;100.00;99842.79;105093;1277;62038;-79
2022/08/22 01:09:00;;;;;;;6.90;2.20;;;;;;;15.96;100.00;99842.63;104913;1277;74805;-79
2022/08/22 01:12:10;;;;;;;7.60;2.10;;;;;;;15.96;100.00;99842.47;104840;1277;67869;-78
2022/08/22 01:15:13;;;;;;;8.20;2.10;;;;;;;15.96;100.00;99842.23;104798;1276;72624;-79
2022/08/22 01:18:32;;;;;;;7.60;2.20;;;;;;;15.95;100.00;99837.19;104913;1277;59787;-79
2022/08/22 01:21:44;;;;;;;7.30;2.30;;;;;;;15.96;100.00;99834.73;105137;1276;62051;-80
2022/08/22 01:25:28;;;;;;;7.30;2.40;;;;;;;15.97;100.00;99837.92;105027;1277;73144;-78
2022/08/22 01:29:05;;;;;;;7.60;2.30;;;;;;;15.99;100.00;99838.69;104781;1271;66611;-78
2022/08/22 01:32:22;;;;;;;8.50;2.20;;;;;;;16.04;100.00;99839.55;105571;1271;74691;-78
2022/08/22 01:35:58;;;;;;;8.40;2.10;;;;;;;16.05;100.00;99845.86;105383;1271;61254;-77
2022/08/22 01:39:37;;;;;;;8.90;2.50;;;;;;;16.02;99.96;99848.98;104518;1279;62123;-78
2022/08/22 01:42:53;;;;;;;6.60;2.10;;;;;;;16.01;100.00;99848.94;104123;1287;74948;-78
2022/08/22 01:46:14;;;;;;;8.00;2.40;;;;;;;16.01;100.00;99852.84;104133;1287;68602;-78
2022/08/22 01:49:47;;;;;;;7.80;2.20;;;;;;;15.99;100.00;99852.45;103888;1287;73697;-79
2022/08/22 01:52:58;;;;;;;12.30;2.50;;;;;;;16.00;100.00;99857.42;103345;1294;60808;-79
2022/08/22 01:56:08;;;;;;;9.60;2.60;;;;;;;15.98;100.00;99859.02;103068;1294;59809;-78
2022/08/22 01:59:13;;;;;;;7.10;2.30;;;;;;;16.00;100.00;99865.11;102840;1294;72615;-78
2022/08/22 02:02:23;;;;;;;8.20;2.40;;;;;;;16.02;100.00;99866.17;101193;1294;2886580;-78
2022/08/22 02:05:39;;;;;;;7.30;2.30;;;;;;;16.02;100.00;99864.43;103194;1294;73340;-79
2022/08/22 02:09:00;;;;;;;8.10;2.30;;;;;;;16.00;100.00;99871.35;103147;1294;59870;-79
2022/08/22 02:12:01;;;;;;;7.40;2.50;;;;;;;16.01;100.00;99872.85;103279;1294;62135;-79
2022/08/22 02:15:17;;;;;;;8.50;2.00;;;;;;;16.02;100.00;99872.02;103644;1288;74738;-80
2022/08/22 02:18:05;;;;;;;8.50;2.40;;;;;;;16.02;100.00;99874.06;104294;1279;69353;-78
2022/08/22 02:21:16;;;;;;;7.70;2.10;;;;;;;16.00;100.00;99870.13;104592;1279;71150;-78
2022/08/22 02:24:48;;;;;;;8.50;2.20;;;;;;;15.97;100.00;99870.77;104594;1279;60234;-78
2022/08/22 02:27:52;;;;;;;8.30;2.40;;;;;;;15.91;100.00;99874.06;103966;1279;62221;-80
2022/08/22 02:31:42;;;;;;;8.20;2.50;;;;;;;15.83;100.00;99879.69;104682;1281;72371;-79
2022/08/22 02:35:13;;;;;;;7.50;2.30;;;;;;;15.77;100.00;99882.13;104628;1281;69634;-77
2022/08/22 02:38:21;;;;;;;7.80;2.30;;;;;;;15.74;100.00;99888.13;104475;1281;71649;-78
2022/08/22 02:41:31;;;;;;;9.60;2.60;;;;;;;15.73;100.00;99884.52;104590;1279;59756;-78
2022/08/22 02:44:31;;;;;;;7.20;2.20;;;;;;;15.73;100.00;99883.65;104800;1279;59717;-80
2022/08/22 02:47:34;;;;;;;7.60;2.10;;;;;;;15.72;100.00;99881.56;104816;1279;72392;-78
2022/08/22 02:50:44;;;;;;;7.90;2.30;;;;;;;15.69;100.00;99885.77;104429;1279;68644;-77
2022/08/22 02:53:43;;;;;;;11.90;2.30;;;;;;;15.68;100.00;99886.99;104524;1279;73838;-77
2022/08/22 02:56:48;;;;;;;7.30;2.40;;;;;;;15.66;100.00;99888.27;104865;1280;59844;-79
2022/08/22 03:00:11;;;;;;;8.30;2.70;;;;;;;15.63;100.00;99885.42;104575;1279;59753;-78
2022/08/22 03:03:30;;;;;;;8.20;2.60;;;;;;;15.61;100.00;99881.39;104542;1271;74825;-79
2022/08/22 03:06:44;;;;;;;8.80;2.40;;;;;;;15.57;100.00;99882.70;104991;1271;68529;-79
2022/08/22 03:09:47;;;;;;;7.20;2.80;;;;;;;15.54;100.00;99885.38;105071;1271;74236;-79
2022/08/22 03:13:12;;;;;;;11.50;2.30;;;;;;;15.50;100.00;99885.73;105148;1271;59707;-77
2022/08/22 03:16:24;;;;;;;7.50;2.30;;;;;;;15.44;100.00;99884.52;105267;1268;59678;-77
2022/08/22 03:19:54;;;;;;;7.30;2.40;;;;;;;15.40;100.00;99881.36;105156;1271;74620;-77
2022/08/22 03:23:06;;;;;;;8.10;2.90;;;;;;;15.37;100.00;99880.80;105286;1271;67706;-78
2022/08/22 03:26:06;;;;;;;9.20;2.90;;;;;;;15.35;100.00;99879.71;105139;1271;71624;-79
2022/08/22 03:29:09;;;;;;;9.70;2.60;;;;;;;15.34;100.00;99878.04;105167;1271;61317;-79
2022/08/22 03:32:22;;;;;;;8.30;2.70;;;;;;;15.34;100.00;99880.71;105486;1271;61438;-79
2022/08/22 03:35:41;;;;;;;8.30;2.70;;;;;;;15.36;100.00;99878.58;105468;1271;74909;-78
2022/08/22 03:38:32;;;;;;;8.70;2.40;;;;;;;15.39;100.00;99878.40;105486;1271;68594;-78
2022/08/22 03:41:48;;;;;;;9.20;2.80;;;;;;;15.41;100.00;99883.20;105058;1271;74415;-78
2022/08/22 03:45:14;;;;;;;8.00;2.90;;;;;;;15.43;100.00;99880.34;105348;1271;59647;-79
2022/08/22 03:48:23;;;;;;;8.40;2.70;;;;;;;15.45;100.00;99882.84;105240;1271;62283;-78
2022/08/22 03:51:30;;;;;;;9.00;3.30;;;;;;;15.45;100.00;99882.67;105136;1271;71852;-79
2022/08/22 03:54:27;;;;;;;8.70;3.10;;;;;;;15.45;100.00;99886.20;105143;1271;67428;-78
2022/08/22 03:57:23;;;;;;;10.20;2.80;;;;;;;15.43;100.00;99883.70;105401;1271;73007;-79
2022/08/22 04:00:20;;;;;;;8.90;3.00;;;;;;;15.44;100.00;99886.02;105118;1271;59643;-78
2022/08/22 04:03:49;;;;;;;11.20;3.20;;;;;;;15.47;100.00;99889.09;105093;1271;60690;-79
2022/08/22 04:06:55;;;;;;;8.40;2.70;;;;;;;15.52;100.00;99892.34;105064;1271;73778;-79
2022/08/22 04:10:05;;;;;;;7.00;2.70;;;;;;;15.57;100.00;99894.70;104935;1271;70052;-81
2022/08/22 04:13:26;;;;;;;8.00;2.80;;;;;;;15.64;100.00;99895.60;105120;1271;74392;-77
2022/08/22 04:17:05;;;;;;;9.00;3.00;;;;;;;15.74;100.00;99892.31;105559;1271;59890;-80
2022/08/22 04:20:43;;;;;;;10.50;3.00;;;;;;;15.84;100.00;99900.15;105962;1271;62032;-79
2022/08/22 04:23:55;;;;;;;8.20;2.90;;;;;;;15.94;100.00;99896.84;105652;1271;73815;-77
2022/08/22 04:27:11;;;;;;;9.00;3.00;;;;;;;16.04;100.00;99894.95;105886;1271;68347;-80
2022/08/22 04:30:19;;;;;;;8.30;3.10;;;;;;;16.13;100.00;99897.91;106039;1271;74377;-78
2022/08/22 04:33:47;;;;;;;8.10;3.00;;;;;;;16.21;100.00;99895.91;105970;1271;61314;-78
2022/08/22 04:36:58;;;;;;;7.60;2.70;;;;;;;16.31;100.00;99898.63;104750;1279;63144;-78
2022/08/22 04:40:01;;;;;;;7.70;2.60;;;;;;;16.37;100.00;99901.89;105223;1279;73189;-79
2022/08/22 04:43:07;;;;;;;10.90;3.40;;;;;;;16.42;100.00;99901.88;105086;1279;66735;-78
2022/08/22 04:46:36;;;;;;;9.50;2.80;;;;;;;16.51;100.00;99903.70;104966;1279;74250;-78
2022/08/22 04:49:55;;;;;;;8.50;3.10;;;;;;;16.60;100.00;99905.61;105032;1279;60027;-78
2022/08/22 04:53:12;;;;;;;7.80;2.80;;;;;;;16.70;100.00;99905.23;105324;1279;59683;-79
2022/08/22 04:56:31;;;;;;;9.10;3.20;;;;;;;16.79;100.00;99908.48;105080;1279;73303;-78
2022/08/22 04:59:20;;;;;;;7.70;2.90;;;;;;;16.91;100.00;99909.85;104906;1279;66840;-78
2022/08/22 05:02:18;;;;;;;11.60;3.10;;;;;;;16.99;100.00;99915.59;105633;1279;71365;-78
2022/08/22 05:05:23;;;;;;;8.50;2.90;;;;;;;17.10;100.00;99911.39;105682;1279;59868;-81
2022/08/22 05:08:19;;;;;;;8.80;3.00;;;;;;;17.22;100.00;99915.00;105364;1279;60554;-78
2022/08/22 05:11:10;;;;;;;7.90;2.70;;;;;;;17.32;100.00;99912.95;105263;1279;73308;-77
2022/08/22 05:14:08;;;;;;;9.00;3.10;;;;;;;17.44;100.00;99916.56;105494;1271;68052;-77
2022/08/22 05:16:58;;;;;;;7.70;2.80;;;;;;;17.56;100.00;99916.52;105760;1271;74460;-79
2022/08/22 05:19:52;;;;;;;10.70;3.40;;;;;;;17.68;100.00;99920.94;105494;1268;59743;-78
2022/08/22 05:22:47;;;;;;;10.20;3.10;;;;;;;17.83;100.00;99923.81;105363;1271;59887;-78
2022/08/22 05:25:39;;;;;;;8.80;2.60;;;;;;;18.00;100.00;99928.05;105215;1271;73996;-80
2022/08/22 05:28:33;;;;;;;8.80;3.10;;;;;;;18.17;100.00;99928.16;105261;1271;68077;-78
2022/08/22 05:31:48;;;;;;;8.20;2.70;;;;;;;18.34;99.90;99931.55;105228;1271;74467;-78
2022/08/22 05:34:41;;;;;;;18.30;11.10;;;;;;;18.52;99.41;99932.33;105420;1271;62216;-75
2022/08/22 05:37:50;;;;;;;13.80;7.90;;;;;;;18.67;98.33;99933.04;105440;1274;59545;-74
2022/08/22 05:40:41;;;;;;;8.30;3.70;;;;;;;18.79;97.44;99932.48;104922;1271;73607;-73
2022/08/22 05:43:34;;;;;;;8.60;3.50;;;;;;;18.91;96.96;99934.52;104918;1274;69722;-73
2022/08/22 05:46:42;;;;;;;8.30;2.70;;;;;;;19.09;96.67;99932.52;105167;1271;72859;-74
2022/08/22 05:50:07;;;;;;;7.40;2.70;;;;;;;19.22;95.64;99939.91;105070;1271;59673;-72
2022/08/22 05:53:26;;;;;;;9.70;2.60;;;;;;;19.44;94.71;99944.08;107231;1271;60356;-74
2022/08/22 05:56:59;;;;;;;10.20;2.90;;;;;;;19.66;93.89;99946.13;105132;1271;74924;-71
2022/08/22 06:00:07;;;;;;;8.50;2.70;;;;;;;19.81;92.81;99951.09;104446;1279;67830;-72
2022/08/22 06:03:16;;;;;;;7.10;2.60;;;;;;;19.95;92.04;99958.05;104704;1279;73913;-71
2022/08/22 06:06:15;;;;;;;10.90;2.50;;;;;;;20.07;91.65;99956.59;104608;1279;61597;-71
2022/08/22 06:09:16;;;;;;;9.00;2.60;;;;;;;20.22;91.35;99958.23;104508;1279;61041;-73
2022/08/22 06:12:13;;;;;;;9.60;2.30;;;;;;;20.34;90.31;99959.19;104706;1279;72228;-73
2022/08/22 06:15:33;;;;;;;7.70;2.40;;;;;;;20.45;90.06;99963.29;104586;1279;70048;-72
2022/08/22 06:18:26;;;;;;;9.10;2.30;;;;;;;20.54;89.00;99961.05;104458;1279;72915;-75
2022/08/22 06:21:28;;;;;;;8.40;2.20;;;;;;;20.79;88.30;99959.54;104534;1279;61482;-70
2022/08/22 06:24:26;;;;;;;8.80;2.80;;;;;;;21.11;87.11;99959.36;104675;1279;59727;-75
2022/08/22 06:27:19;;;;;;;8.30;2.50;;;;;;;21.63;84.99;99961.05;104610;1279;73146;-73
2022/08/22 06:30:13;;;;;;;12.20;6.30;;;;;;;22.44;81.54;99961.96;104487;1279;67926;-73
2022/08/22 06:33:08;;;;;;;8.60;3.10;;;;;;;23.89;76.01;99955.13;104525;1271;72015;-71
2022/08/22 06:39:31;;;;;;;7.50;1.80;;;;;;;26.57;66.65;99959.48;105393;1271;59643;-71
2022/08/22 06:42:31;;;;;;;10.70;2.20;;;;;;;27.77;60.45;99956.54;105162;1271;73175;-74
2022/08/22 06:45:31;;;;;;;9.10;1.70;;;;;;;29.34;55.28;99955.02;105331;1271;68112;-73
2022/08/22 06:48:23;;;;;;;7.30;1.70;;;;;;;30.64;51.05;99952.70;105114;1271;72843;-73
2022/08/22 06:51:12;;;;;;;7.80;3.30;;;;;;;31.61;47.64;99952.84;105318;1271;59662;-73
2022/08/22 06:54:04;;;;;;;10.80;7.10;;;;;;;32.77;44.96;99955.19;104950;1274;60498;-73
2022/08/22 06:56:54;;;;;;;9.00;3.20;;;;;;;34.12;41.78;99945.55;104977;1271;74826;-73
2022/08/22 06:59:42;;;;;;;8.40;2.30;;;;;;;35.23;38.26;99946.98;105186;1271;68041;-74
2022/08/22 07:02:46;;;;;;;7.30;2.10;;;;;;;36.08;35.97;99947.45;105209;1271;74111;-72
2022/08/22 07:05:39;;;;;;;6.10;1.40;;;;;;;36.80;34.30;99949.52;105119;1271;59903;-76
2022/08/22 07:08:31;;;;;;;6.30;1.20;;;;;;;37.14;33.17;99949.13;105271;1271;62028;-74
2022/08/22 07:11:38;;;;;;;6.80;1.20;;;;;;;37.77;32.30;99945.77;105144;1271;75040;-73
2022/08/22 07:14:42;;;;;;;6.30;1.20;;;;;;;38.44;31.07;99941.30;104934;1273;68578;-74
2022/08/22 07:17:56;;;;;;;7.90;1.20;;;;;;;39.14;29.55;99943.27;105385;1271;72874;-74
2022/08/22 07:20:53;;;;;;;6.40;1.20;;;;;;;39.36;28.65;99939.38;105215;1274;59814;-77
2022/08/22 07:23:46;;;;;;;6.30;1.30;;;;;;;39.18;28.88;99945.21;105038;1271;62024;-75
2022/08/22 07:27:26;;;;;;;7.80;1.30;;;;;;;39.34;28.38;99942.65;105559;1271;73356;-74
2022/08/22 07:30:18;;;;;;;8.60;1.50;;;;;;;38.53;29.24;99941.80;105478;1271;70182;-74
2022/08/22 07:33:47;;;;;;;7.50;1.90;;;;;;;37.30;30.51;99946.21;105217;1271;71306;-71
2022/08/22 07:37:20;;;;;;;8.10;2.40;;;;;;;35.78;32.53;99941.35;105361;1271;59762;-71
2022/08/22 07:40:08;;;;;;;7.30;1.50;;;;;;;34.11;35.14;99939.76;105693;1269;62066;-74
2022/08/22 07:43:02;;;;;;;6.50;1.90;;;;;;;33.19;37.37;99941.90;105264;1271;74815;-74
2022/08/22 07:46:05;;;;;;;7.10;1.50;;;;;;;32.33;38.73;99939.06;105182;1271;66781;-74
2022/08/22 07:49:13;;;;;;;7.60;1.70;;;;;;;32.00;38.97;99933.52;105201;1271;73360;-74
2022/08/22 07:52:10;;;;;;;7.00;1.70;;;;;;;31.88;39.78;99930.30;105417;1271;60433;-73
2022/08/22 07:55:24;;;;;;;7.60;1.50;;;;;;;31.98;40.33;99930.74;105039;1271;61373;-73
2022/08/22 07:58:14;;;;;;;8.20;1.70;;;;;;;31.16;41.59;99932.42;105416;1271;72410;-74
2022/08/22 08:01:02;;;;;;;7.10;1.80;;;;;;;30.33;42.91;99933.11;105192;1271;69588;-81
2022/08/22 08:04:11;;;;;;;7.40;1.70;;;;;;;30.14;43.84;99937.89;105206;1271;74534;-74
2022/08/22 08:07:07;;;;;;;7.00;1.90;;;;;;;30.72;43.19;99938.20;105356;1271;59620;-73
2022/08/22 08:10:04;;;;;;;8.10;1.70;;;;;;;32.07;41.04;99940.03;105497;1271;60048;-74
2022/08/22 08:13:03;;;;;;;10.80;1.70;;;;;;;32.63;38.91;99942.20;105218;1271;73741;-74
2022/08/22 08:15:52;;;;;;;7.50;1.60;;;;;;;33.69;37.63;99939.86;105184;1271;67852;-74
2022/08/22 08:18:40;;;;;;;8.70;3.70;;;;;;;33.98;36.74;99937.09;105146;1271;72892;-75
2022/08/22 08:21:53;;;;;;;7.60;2.20;;;;;;;34.48;35.74;99940.97;105183;1271;60016;-74
2022/08/22 08:24:42;;;;;;;13.00;7.70;;;;;;;34.14;36.27;99936.80;105239;1271;62073;-74
2022/08/22 08:31:19;;;;;;;7.40;1.50;;;;;;;33.26;35.60;99947.96;105438;1271;66694;-73
2022/08/22 08:34:16;;;;;;;7.30;1.50;;;;;;;31.79;37.30;99948.35;105228;1271;72835;-74
2022/08/22 08:37:25;;;;;;;10.20;3.70;;;;;;;30.93;40.38;99946.36;105516;1271;59634;-76
2022/08/22 08:40:31;;;;;;;7.80;1.80;;;;;;;30.12;42.36;99948.45;105248;1271;61769;-76
2022/08/22 08:43:55;;;;;;;8.00;2.10;;;;;;;29.65;44.16;99950.92;105064;1271;74594;-75
2022/08/22 08:47:11;;;;;;;7.00;1.70;;;;;;;29.03;45.41;99952.48;105482;1271;69287;-75
2022/08/22 08:50:43;;;;;;;8.60;1.90;;;;;;;28.35;46.51;99954.38;105434;1271;72862;-76
2022/08/22 08:54:08;;;;;;;11.30;6.10;;;;;;;27.59;48.42;99952.50;105216;1271;59662;-75
2022/08/22 08:57:31;;;;;;;13.10;6.70;;;;;;;26.91;49.90;99954.27;105165;1271;61091;-75
2022/08/22 09:00:55;;;;;;;10.90;3.70;;;;;;;26.51;52.25;99955.83;105121;1270;73292;-75
2022/08/22 09:04:22;;;;;;;9.20;2.30;;;;;;;26.21;52.64;99952.08;104671;1279;69544;-74
2022/08/22 09:07:50;;;;;;;7.60;2.00;;;;;;;26.21;53.73;99948.64;104563;1279;74402;-74
2022/08/22 09:11:05;;;;;;;10.00;1.80;;;;;;;26.37;53.59;99950.06;104555;1279;59713;-75
2022/08/22 09:14:23;;;;;;;8.30;1.80;;;;;;;26.59;53.51;99947.71;104411;1280;60505;-73
2022/08/22 09:17:37;;;;;;;9.00;2.70;;;;;;;26.71;52.64;99945.02;104692;1279;74710;-73
2022/08/22 09:21:00;;;;;;;16.10;9.10;;;;;;;26.97;52.30;99938.24;104420;1279;69776;-76
2022/08/22 09:24:20;;;;;;;7.70;3.10;;;;;;;27.12;51.78;99945.02;104549;1279;74438;-75
2022/08/22 09:27:30;;;;;;;8.00;2.60;;;;;;;27.07;50.94;99941.14;104522;1279;59881;-76
2022/08/22 09:30:23;;;;;;;9.40;2.30;;;;;;;27.01;51.70;99943.24;104413;1279;59552;-74
2022/08/22 09:34:21;;;;;;;6.20;2.00;;;;;;;26.86;52.27;99946.11;104372;1279;75199;-75
2022/08/22 09:37:39;;;;;;;8.10;1.80;;;;;;;26.75;52.58;99948.48;104603;1279;67013;-75
2022/08/22 09:40:38;;;;;;;9.10;1.80;;;;;;;26.65;52.46;99951.38;105168;1271;74186;-76
2022/08/22 09:44:07;;;;;;;7.50;2.00;;;;;;;26.68;52.84;99951.52;105033;1271;59887;-74
2022/08/22 09:47:49;;;;;;;8.80;2.00;;;;;;;26.53;53.59;99953.11;105401;1271;60747;-74
2022/08/22 09:51:13;;;;;;;7.70;1.80;;;;;;;26.34;54.14;99952.44;104974;1271;74707;-73
2022/08/22 09:54:48;;;;;;;7.80;2.50;;;;;;;26.32;54.91;99954.98;105025;1271;66475;-75
2022/08/22 09:58:22;;;;;;;7.30;2.00;;;;;;;26.54;54.43;99957.55;105447;1271;74226;-75
2022/08/22 10:01:17;;;;;;;11.30;4.40;;;;;;;26.75;52.14;99964.64;105249;1271;59658;-74
2022/08/22 10:05:08;;;;;;;10.50;3.80;;;;;;;26.95;51.38;99964.98;105154;1271;59927;-75
2022/08/22 10:08:35;;;;;;;9.00;2.70;;;;;;;27.50;50.51;99968.95;104468;1279;75014;-74
2022/08/22 10:11:39;;;;;;;7.60;3.10;;;;;;;27.88;49.14;99967.98;104836;1279;69557;-75
2022/08/22 10:15:15;;;;;;;7.20;2.40;;;;;;;27.87;47.70;99965.34;104398;1280;74450;-74
2022/08/22 10:18:16;;;;;;;7.60;2.10;;;;;;;27.67;48.22;99967.80;104555;1279;59874;-74
2022/08/22 10:21:07;;;;;;;8.40;1.90;;;;;;;27.70;48.48;99963.17;104720;1280;59594;-74
2022/08/22 10:24:36;;;;;;;8.70;1.90;;;;;;;27.96;49.10;99968.23;104655;1280;74785;-74
2022/08/22 10:27:41;;;;;;;8.10;2.00;;;;;;;28.11;48.94;99967.70;104801;1281;68547;-73
2022/08/22 10:31:04;;;;;;;12.50;6.20;;;;;;;28.04;46.58;99964.48;104481;1279;73747;-75
2022/08/22 10:34:20;;;;;;;7.40;2.20;;;;;;;27.72;47.98;99961.46;104623;1279;59859;-73
2022/08/22 10:37:57;;;;;;;7.90;1.90;;;;;;;27.45;48.86;99967.30;104878;1280;60626;-75
2022/08/22 10:40:56;;;;;;;8.30;2.80;;;;;;;27.39;50.24;99971.44;104517;1281;75018;-78
2022/08/22 10:44:16;;;;;;;8.60;2.10;;;;;;;27.31;49.71;99969.11;104847;1271;69552;-75
2022/08/22 10:47:15;;;;;;;8.80;1.70;;;;;;;27.17;50.61;99973.69;105456;1271;72892;-74
2022/08/22 10:50:17;;;;;;;7.20;1.90;;;;;;;27.16;50.32;99972.06;105195;1271;59682;-73
2022/08/22 10:53:45;;;;;;;6.90;1.70;;;;;;;27.60;48.87;99971.11;105505;1271;60912;-77
2022/08/22 10:56:44;;;;;;;8.10;2.00;;;;;;;28.09;47.66;99967.09;105340;1271;74715;-74
2022/08/22 10:59:42;;;;;;;7.00;1.90;;;;;;;28.55;47.45;99972.34;105154;1271;69932;-75
2022/08/22 11:03:01;;;;;;;7.00;1.80;;;;;;;28.63;46.05;99973.40;105208;1271;74127;-75
2022/08/22 11:05:56;;;;;;;6.80;1.50;;;;;;;28.72;46.24;99977.16;105214;1271;59772;-74
2022/08/22 11:09:11;;;;;;;7.60;1.70;;;;;;;28.66;46.33;99974.34;105266;1271;62175;-75
2022/08/22 11:12:22;;;;;;;7.00;1.70;;;;;;;28.25;46.27;99974.85;105071;1271;74355;-74
2022/08/22 11:15:53;;;;;;;7.30;1.70;;;;;;;27.87;47.34;99968.40;105194;1271;68511;-73
2022/08/22 11:19:23;;;;;;;6.60;1.60;;;;;;;27.73;47.97;99970.29;104994;1271;71665;-75
2022/08/22 11:22:54;;;;;;;7.10;1.80;;;;;;;27.83;48.09;99969.56;105224;1271;59762;-77
2022/08/22 11:26:06;;;;;;;7.80;1.80;;;;;;;28.03;46.76;99979.48;105172;1271;59643;-75
2022/08/22 11:29:38;;;;;;;9.40;2.20;;;;;;;27.82;46.45;99975.93;105274;1271;73899;-73
2022/08/22 11:32:48;;;;;;;7.70;1.60;;;;;;;27.55;46.86;99973.13;105035;1271;68630;-74
2022/08/22 11:35:55;;;;;;;6.30;1.50;;;;;;;27.62;47.42;99971.98;105196;1271;74410;-73
2022/08/22 11:39:11;;;;;;;6.80;1.60;;;;;;;27.79;47.70;99969.55;105414;1271;59657;-73
2022/08/22 11:42:25;;;;;;;6.80;1.80;;;;;;;27.95;47.82;99974.93;105184;1271;60084;-74
2022/08/22 11:45:24;;;;;;;11.30;4.80;;;;;;;27.87;47.73;99974.02;105183;1271;73386;-74
2022/08/22 11:48:37;;;;;;;8.00;2.30;;;;;;;27.74;47.95;99974.31;105334;1271;67994;-74
2022/08/22 11:52:05;;;;;;;7.60;3.20;;;;;;;27.76;48.50;99974.70;105074;1274;73364;-73
2022/08/22 11:55:18;;;;;;;7.20;2.30;;;;;;;27.61;48.56;99976.06;105391;1271;59685;-75
2022/08/22 11:59:00;;;;;;;7.10;2.70;;;;;;;27.41;49.07;99973.13;105037;1271;59928;-74
2022/08/22 12:01:59;;;;;;;8.50;2.70;;;;;;;27.10;49.77;99977.11;105105;1271;75139;-73
2022/08/22 12:04:54;;;;;;;7.90;2.40;;;;;;;26.68;50.57;99978.94;104981;1274;69561;-74
2022/08/22 12:07:55;;;;;;;8.00;1.90;;;;;;;26.39;51.71;99982.41;105144;1271;72451;-72
2022/08/22 12:11:25;;;;;;;8.10;1.80;;;;;;;26.17;51.59;99979.05;105211;1271;59675;-73
2022/08/22 12:15:05;;;;;;;7.90;2.10;;;;;;;26.15;52.67;99979.27;105073;1271;59675;-74
2022/08/22 12:18:52;;;;;;;6.60;1.80;;;;;;;26.26;53.40;99982.06;104521;1278;74810;-72
2022/08/22 12:22:37;;;;;;;7.00;1.70;;;;;;;26.22;53.94;99987.00;104572;1281;69677;-73
2022/08/22 12:25:52;;;;;;;7.00;1.80;;;;;;;26.13;53.78;99983.11;104445;1281;71836;-72
2022/08/22 12:29:08;;;;;;;7.60;1.90;;;;;;;26.03;54.22;99983.15;104716;1279;59745;-75
2022/08/22 12:32:14;;;;;;;8.40;2.10;;;;;;;25.81;54.46;99972.36;104774;1279;61105;-74
2022/08/22 12:35:28;;;;;;;6.60;1.70;;;;;;;25.75;54.11;99974.80;104993;1280;71900;-74
2022/08/22 12:38:39;;;;;;;7.30;1.70;;;;;;;25.70;53.95;99980.33;105418;1281;69561;-74
2022/08/22 12:41:46;;;;;;;6.50;1.60;;;;;;;25.75;54.95;99984.49;105745;1280;74892;-76
2022/08/22 12:45:29;;;;;;;6.80;1.50;;;;;;;25.80;54.47;99984.83;105390;1280;60203;-74
2022/08/22 12:48:38;;;;;;;9.10;2.20;;;;;;;25.89;54.09;99982.27;105164;1281;61618;-75
2022/08/22 12:52:23;;;;;;;9.10;1.90;;;;;;;25.97;54.08;99976.71;104636;1281;73418;-76
2022/08/22 12:55:23;;;;;;;6.70;1.50;;;;;;;25.78;53.24;99975.92;104919;1271;68607;-72
2022/08/22 12:58:41;;;;;;;9.70;1.80;;;;;;;25.65;53.69;99978.65;105374;1271;73293;-73
2022/08/22 13:01:38;;;;;;;6.90;1.60;;;;;;;25.48;53.87;99979.72;105156;1271;59720;-75
2022/08/22 13:04:34;;;;;;;9.70;2.10;;;;;;;25.38;54.88;99974.79;105034;1271;59604;-73
2022/08/22 13:07:38;;;;;;;7.20;2.30;;;;;;;25.24;55.52;99970.58;105188;1271;73456;-74
2022/08/22 13:10:47;;;;;;;8.80;1.90;;;;;;;25.11;56.22;99974.75;105202;1271;66826;-73
2022/08/22 13:13:51;;;;;;;7.20;2.10;;;;;;;25.09;56.44;99970.65;105483;1271;73916;-74
2022/08/22 13:16:48;;;;;;;7.00;2.20;;;;;;;25.13;57.00;99972.06;105080;1271;59666;-74
2022/08/22 13:19:50;;;;;;;7.00;1.90;;;;;;;25.20;56.81;99974.71;105144;1270;60004;-73
2022/08/22 13:22:42;;;;;;;8.00;2.30;;;;;;;25.15;57.50;99973.69;105322;1271;73107;-73
2022/08/22 13:25:59;;;;;;;6.60;1.90;;;;;;;25.11;57.78;99974.55;105115;1271;68556;-73
2022/08/22 13:29:00;;;;;;;7.40;2.00;;;;;;;25.05;57.93;99974.41;104947;1271;72926;-74
2022/08/22 13:32:36;;;;;;;8.80;2.40;;;;;;;25.02;57.75;99981.20;105076;1271;59779;-73
2022/08/22 13:35:42;;;;;;;8.70;2.30;;;;;;;24.87;57.71;99985.08;105235;1271;62450;-73
2022/08/22 13:38:53;;;;;;;7.20;2.10;;;;;;;24.78;58.29;99987.41;105111;1271;73620;-74
2022/08/22 13:42:03;;;;;;;7.70;2.20;;;;;;;24.76;58.74;99988.34;105527;1274;68029;-73
2022/08/22 13:45:10;;;;;;;10.30;2.00;;;;;;;24.80;58.11;99989.51;105141;1271;72851;-74
2022/08/22 13:48:11;;;;;;;7.40;2.10;;;;;;;24.74;58.60;99985.95;105183;1271;59974;-73
2022/08/22 13:51:34;;;;;;;7.70;2.20;;;;;;;24.70;59.48;99987.78;105422;1271;60523;-73
2022/08/22 13:54:25;;;;;;;7.80;2.20;;;;;;;24.57;58.37;99995.66;105101;1271;74511;-74
2022/08/22 13:57:24;;;;;;;7.70;1.90;;;;;;;24.31;58.51;99998.84;105057;1271;68132;-74
2022/08/22 14:00:18;;;;;;;9.30;2.10;;;;;;;24.16;59.62;100004.59;104020;1271;1428514;-73
2022/08/22 14:03:27;;;;;;;7.40;1.90;;;;;;;23.99;59.49;100006.55;105205;1271;59804;-73
2022/08/22 14:06:30;;;;;;;8.80;2.00;;;;;;;23.76;56.42;100004.33;104969;1271;59660;-73
2022/08/22 14:09:58;;;;;;;8.40;2.10;;;;;;;23.64;56.50;100005.73;105399;1271;72005;-76
2022/08/22 14:12:55;;;;;;;8.50;2.60;;;;;;;23.47;57.28;100006.42;105147;1271;67909;-74
2022/08/22 14:15:44;;;;;;;11.30;6.00;;;;;;;23.38;56.63;100008.81;105091;1271;71684;-71
2022/08/22 14:18:41;;;;;;;10.20;3.50;;;;;;;23.32;57.43;100011.45;105169;1271;59669;-73
2022/08/22 14:21:35;;;;;;;10.40;3.20;;;;;;;23.29;58.41;100004.73;105219;1271;60606;-73
2022/08/22 14:24:53;;;;;;;8.00;2.20;;;;;;;23.29;59.55;100003.32;105206;1271;74897;-73
2022/08/22 14:27:48;;;;;;;8.80;3.50;;;;;;;23.29;60.21;100001.52;105135;1271;67648;-73
2022/08/22 14:31:02;;;;;;;9.80;2.90;;;;;;;23.31;60.60;100003.99;105191;1271;74748;-75
2022/08/22 14:33:56;;;;;;;9.60;2.50;;;;;;;23.21;60.48;100000.45;105018;1271;59810;-73
2022/08/22 14:37:01;;;;;;;8.00;2.50;;;;;;;23.12;61.18;99999.95;105085;1271;59789;-72
2022/08/22 14:40:00;;;;;;;9.70;2.20;;;;;;;23.04;61.65;100001.38;105189;1271;73135;-72
2022/08/22 14:43:06;;;;;;;9.00;2.20;;;;;;;22.98;61.90;100004.30;105102;1271;68634;-73
2022/08/22 14:46:05;;;;;;;7.90;1.90;;;;;;;22.92;62.03;100008.70;105072;1271;72638;-73
2022/08/22 14:49:19;;;;;;;6.90;1.80;;;;;;;22.75;60.00;100006.91;104977;1272;59621;-75